Data for 03/24/2016

Time Sea-Level Adjusted Pressure Absolute Pressure Temperature Relative Humidity Dew Point   
(mb) (inHg) (mb) (inHg) (C) (F) (%) (C) (F)
00:05 1019 30.09 848 25.04 0.2 32.3 63 -6.1 21
00:10 1019 30.09 848 25.04 0.2 32.3 63 -6.1 21
00:15 1019 30.09 848 25.04 0.2 32.4 62 -6.1 20.9
00:20 1019 30.09 848 25.04 0.3 32.6 62 -6.1 21.1
00:25 1019 30.09 848 25.04 0.5 32.9 62 -6 21.2
00:30 1019 30.09 848 25.04 0.4 32.8 63 -5.8 21.6
00:35 1019 30.09 848 25.04 0.2 32.4 64 -5.8 21.6
00:40 1019 30.09 848 25.04 0.2 32.3 66 -5.5 22.1
00:45 1019 30.09 848 25.04 0.1 32.1 66 -5.5 22.1
00:50 1019 30.09 848 25.04 0.1 32.2 65 -5.6 21.9
00:55 1019 30.09 848 25.04 0.2 32.3 66 -5.5 22.1
01:00 1019 30.09 848 25.04 0 32 67 -5.4 22.2
01:05 1019 30.09 848 25.04 -0.1 31.9 66 -5.6 21.9
01:10 1019 30.09 848 25.04 -0.1 31.9 67 -5.5 22.1
01:15 1019 30.09 848 25.04 -0.5 31.1 69 -5.6 22
01:20 1019 30.09 848 25.04 -0.3 31.4 65 -6.1 20.9
01:25 1019 30.09 848 25.04 0 32.1 64 -6 21.3
01:30 1019 30.09 848 25.04 0.2 32.3 62 -6.2 20.9
01:35 1019 30.09 848 25.04 0.1 32.2 65 -5.6 21.9
01:40 1019 30.09 848 25.04 -0 31.9 65 -5.8 21.6
01:45 1019 30.09 848 25.04 -0.2 31.7 68 -5.5 22.1
01:50 1019 30.09 848 25.04 -0.4 31.3 67 -5.9 21.4
01:55 1019 30.09 848 25.04 -0.3 31.5 65 -6 21.1
02:00 1018 30.06 848 25.04 -0.1 31.8 66 -5.8 21.6
02:05 1018 30.06 848 25.04 -0.3 31.4 68 -5.6 22
02:10 1018 30.06 848 25.04 -0.4 31.3 67 -5.7 21.7
02:15 1018 30.06 848 25.04 -0.2 31.6 67 -5.6 21.9
02:20 1018 30.06 848 25.04 -0.1 31.8 63 -6.4 20.5
02:25 1018 30.06 847 25.01 0.1 32.2 65 -5.7 21.7
02:30 1018 30.06 847 25.01 -0.1 31.9 64 -6 21.1
02:35 1018 30.06 847 25.01 0.3 32.5 62 -6.2 20.8
02:40 1018 30.06 847 25.01 0.1 32.3 67 -5.2 22.6
02:45 1018 30.06 847 25.01 -0.5 31 69 -5.5 22.2
02:50 1018 30.06 847 25.01 -0.8 30.6 69 -5.8 21.6
02:55 1018 30.06 847 25.01 -0.7 30.8 69 -5.6 21.9
03:00 1018 30.06 847 25.01 -0.7 30.8 68 -5.8 21.5
03:05 1018 30.06 847 25.01 -0.8 30.6 68 -5.9 21.4
03:10 1018 30.06 847 25.01 -0.8 30.5 69 -5.9 21.5
03:15 1018 30.06 847 25.01 -0.9 30.4 69 -5.9 21.4
03:20 1018 30.06 847 25.01 -0.9 30.4 69 -5.8 21.6
03:25 1018 30.06 847 25.01 -0.8 30.6 68 -5.9 21.4
03:30 1017 30.03 847 25.01 -0.7 30.8 67 -6 21.3
03:35 1017 30.03 847 25.01 -0.9 30.4 69 -5.9 21.5
03:40 1017 30.03 847 25.01 -1.4 29.6 71 -5.9 21.4
03:45 1017 30.03 847 25.01 -1.4 29.4 71 -6 21.2
03:50 1017 30.03 846 24.98 -1.4 29.5 73 -5.7 21.7
03:55 1017 30.03 846 24.98 -1.7 29 74 -5.8 21.6
04:00 1017 30.03 846 24.98 -1.8 28.7 72 -6.2 20.9
04:05 1017 30.03 846 24.98 -1.4 29.5 70 -6.1 20.9
04:10 1017 30.03 846 24.98 -1.2 29.8 71 -5.8 21.5
04:15 1017 30.03 846 24.98 -1.2 29.9 70 -6 21.2
04:20 1017 30.03 846 24.98 -1.4 29.5 71 -6 21.3
04:25 1017 30.03 846 24.98 -1.6 29.1 72 -6 21.2
04:30 1017 30.03 846 24.98 -1.6 29 73 -5.8 21.5
04:35 1017 30.03 846 24.98 -1.5 29.3 71 -6.1 21
04:40 1017 30.03 846 24.98 -1.3 29.6 69 -6.3 20.6
04:45 1017 30.03 846 24.98 -1.4 29.6 70 -6.1 21
04:50 1017 30.03 846 24.98 -1.7 28.9 74 -5.7 21.8
04:55 1017 30.03 846 24.98 -2.2 28 75 -6 21.1
05:00 1017 30.03 846 24.98 -2.2 28.1 74 -6.2 20.9
05:05 1017 30.03 846 24.98 -2.1 28.2 74 -6.1 21
05:10 1017 30.03 846 24.98 -1.9 28.6 72 -6.2 20.9
05:15 1017 30.03 846 24.98 -1.5 29.3 71 -6.1 21
05:20 1017 30.03 846 24.98 -1.3 29.6 70 -6 21.1
05:25 1017 30.03 846 24.98 -1.4 29.6 70 -6.2 20.9
05:30 1016 30 846 24.98 -1.3 29.6 69 -6.3 20.7
05:35 1016 30 846 24.98 -1.5 29.2 72 -5.9 21.4
05:40 1016 30 846 24.98 -1.9 28.6 73 -6.1 21
05:45 1016 30 846 24.98 -1.9 28.6 73 -6.2 20.8
05:50 1016 30 846 24.98 -1.9 28.6 73 -6.1 21
05:55 1016 30 845 24.95 -1.9 28.6 73 -6.2 20.9
06:00 1016 30 845 24.95 -2 28.4 73 -6.3 20.7
06:05 1016 30 845 24.95 -1.9 28.5 72 -6.2 20.8
06:10 1016 30 845 24.95 -1.9 28.5 73 -6.1 21
06:15 1016 30 845 24.95 -1.9 28.5 73 -6.1 21.1
06:20 1016 30 845 24.95 -1.7 28.9 73 -5.9 21.3
06:25 1016 30 845 24.95 -1.6 29.2 74 -5.7 21.7
06:30 1016 30 845 24.95 -1.5 29.2 73 -5.8 21.5
06:35 1016 30 845 24.95 -1.3 29.6 72 -5.7 21.7
06:40 1016 30 845 24.95 -1.3 29.7 72 -5.6 21.9
06:45 1016 30 845 24.95 -1.2 29.9 71 -5.8 21.6
06:50 1015 29.97 845 24.95 -1 30.2 69 -6 21.3
06:55 1015 29.97 845 24.95 -0.8 30.6 68 -6 21.1
07:00 1015 29.97 844 24.92 -0.6 30.9 66 -6.1 21
07:05 1015 29.97 844 24.92 -0.5 31.2 66 -5.9 21.3
07:10 1015 29.97 844 24.92 -0.4 31.3 67 -5.8 21.5
07:15 1015 29.97 844 24.92 -0.3 31.5 65 -6 21.2
07:20 1015 29.97 844 24.92 -0.1 31.8 65 -5.9 21.4
07:25 1015 29.97 844 24.92 0 32 64 -6 21.3
07:30 1015 29.97 844 24.92 0.3 32.5 64 -5.8 21.6
07:35 1015 29.97 844 24.92 0.7 33.2 61 -5.9 21.4
07:40 1015 29.97 844 24.92 1.1 33.9 60 -5.9 21.3
07:45 1015 29.97 844 24.92 1.5 34.7 61 -5.3 22.5
07:50 1014 29.94 844 24.92 1.4 34.6 59 -5.6 21.8
07:55 1014 29.94 844 24.92 1.5 34.8 61 -5.3 22.5
08:00 1014 29.94 844 24.92 1.6 34.9 61 -5 23
08:05 1014 29.94 843 24.89 1.7 35.1 58 -5.6 21.9
08:10 1014 29.94 843 24.89 1.7 35.1 58 -5.7 21.7
08:15 1014 29.94 843 24.89 1.9 35.4 59 -5.3 22.4
08:20 1014 29.94 843 24.89 1.9 35.5 61 -4.9 23.2
08:25 1014 29.94 843 24.89 2 35.5 59 -5.1 22.8
08:30 1014 29.94 843 24.89 2 35.6 59 -5.3 22.5
08:35 1014 29.94 843 24.89 2 35.6 58 -5.3 22.4
08:40 1014 29.94 843 24.89 2.1 35.7 58 -5.3 22.5
08:45 1014 29.94 843 24.89 2.2 36 56 -5.6 22
08:50 1014 29.94 843 24.89 2.5 36.5 57 -5.2 22.7
08:55 1014 29.94 843 24.89 2.8 37 56 -5.2 22.6
09:00 1014 29.94 843 24.89 2.9 37.2 52 -6 21.3
09:05 1014 29.94 843 24.89 3 37.4 55 -5.1 22.8
09:10 1014 29.94 843 24.89 3.1 37.6 56 -4.9 23.2
09:15 1014 29.94 844 24.92 3.1 37.6 57 -4.6 23.8
09:20 1014 29.94 843 24.89 3 37.4 56 -5 23
09:25 1014 29.94 843 24.89 3.1 37.6 56 -4.8 23.4
09:30 1014 29.94 843 24.89 3.1 37.6 57 -4.5 23.8
09:35 1014 29.94 843 24.89 3 37.4 60 -4 24.8
09:40 1014 29.94 843 24.89 2.7 36.9 60 -4.3 24.3
09:45 1014 29.94 843 24.89 2.8 37 60 -4.2 24.4
09:50 1014 29.94 843 24.89 2.7 36.9 60 -4.3 24.3
09:55 1014 29.94 843 24.89 2.7 36.9 62 -3.9 24.9
10:00 1014 29.94 843 24.89 2.6 36.7 65 -3.2 26.2
10:05 1014 29.94 843 24.89 2.3 36.2 68 -3 26.5
10:10 1013 29.91 843 24.89 2.4 36.3 69 -2.7 27.1
10:15 1013 29.91 843 24.89 2.5 36.6 70 -2.4 27.8
10:20 1013 29.91 843 24.89 2.7 36.9 71 -2 28.3
10:25 1013 29.91 843 24.89 2.8 37.1 72 -1.8 28.8
10:30 1013 29.91 842 24.86 2.8 37 71 -1.9 28.6
10:35 1013 29.91 842 24.86 2.6 36.6 71 -2.2 28.1
10:40 1013 29.91 842 24.86 2.6 36.6 72 -1.9 28.6
10:45 1013 29.91 842 24.86 2.8 37 71 -1.9 28.5
10:50 1013 29.91 842 24.86 3.1 37.5 69 -2.1 28.2
10:55 1013 29.91 842 24.86 3.7 38.6 66 -2.1 28.1
11:00 1013 29.91 842 24.86 4.4 39.9 59 -2.9 26.7
11:05 1013 29.91 842 24.86 5.2 41.4 57 -2.6 27.3
11:10 1013 29.91 842 24.86 5.9 42.6 55 -2.4 27.7
11:15 1013 29.91 842 24.86 6.2 43.2 53 -2.7 27.2
11:20 1013 29.91 842 24.86 6.3 43.3 52 -2.8 27
11:25 1012 29.88 842 24.86 6 42.7 56 -2.2 28
11:30 1012 29.88 842 24.86 5.8 42.5 55 -2.5 27.4
11:35 1012 29.88 842 24.86 6.4 43.5 52 -2.7 27.2
11:40 1012 29.88 842 24.86 6.7 44.1 55 -1.7 29
11:45 1012 29.88 842 24.86 7.1 44.9 55 -1.3 29.7
11:50 1012 29.88 842 24.86 7.4 45.3 51 -2.1 28.1
11:55 1012 29.88 841 24.83 7.6 45.6 47 -3.1 26.5
12:00 1012 29.88 841 24.83 7.5 45.6 44 -3.9 25
12:05 1012 29.88 841 24.83 7.4 45.2 45 -3.9 25
12:10 1012 29.88 841 24.83 7.4 45.3 45 -3.9 25.1
12:15 1012 29.88 841 24.83 7.5 45.6 46 -3.4 25.9
12:20 1012 29.88 841 24.83 7.3 45.2 44 -4.1 24.6
12:25 1012 29.88 841 24.83 7.4 45.2 44 -4.1 24.7
12:30 1011 29.85 841 24.83 7.4 45.2 44 -4 24.7
12:35 1011 29.85 840 24.81 7.8 46 44 -3.8 25.1
12:40 1011 29.85 840 24.81 8 46.5 41 -4.4 24.2
12:45 1011 29.85 840 24.81 7.9 46.2 42 -4.3 24.2
12:50 1011 29.85 840 24.81 7.8 46 43 -4.1 24.6
12:55 1011 29.85 840 24.81 7.7 45.9 42 -4.4 24
13:00 1011 29.85 840 24.81 7.6 45.7 43 -4.3 24.3
13:05 1011 29.85 840 24.81 7.6 45.7 40 -5.1 22.9
13:10 1011 29.85 840 24.81 7.9 46.3 41 -4.5 23.9
13:15 1010 29.83 840 24.81 8.3 46.9 38 -5.3 22.5
13:20 1010 29.83 840 24.81 8.5 47.2 40 -4.3 24.3
13:25 1010 29.83 840 24.81 8.4 47.1 43 -3.3 26
13:30 1010 29.83 839 24.78 8.2 46.7 42 -4 24.7
13:35 1010 29.83 839 24.78 7.8 46 44 -3.8 25.1
13:40 1010 29.83 839 24.78 8.2 46.7 42 -4.1 24.7
13:45 1010 29.83 839 24.78 8.4 47.2 41 -4.1 24.7
13:50 1010 29.83 839 24.78 8.4 47.1 42 -3.9 25
13:55 1010 29.83 839 24.78 8.3 46.9 40 -4.4 24.1
14:00 1010 29.83 839 24.78 8.2 46.8 44 -3.3 26.1
14:05 1010 29.83 839 24.78 8.1 46.5 42 -4 24.8
14:10 1010 29.83 839 24.78 8.1 46.6 41 -4.3 24.2
14:15 1010 29.83 839 24.78 8.4 47 42 -3.9 24.9
14:20 1010 29.83 839 24.78 8.2 46.8 40 -4.6 23.7
14:25 1010 29.83 839 24.78 8.2 46.7 41 -4.3 24.2
14:30 1010 29.83 839 24.78 8 46.4 40 -4.6 23.7
14:35 1010 29.83 839 24.78 7.9 46.3 40 -4.9 23.2
14:40 1010 29.83 839 24.78 6.6 43.9 67 0.9 33.7
14:45 1011 29.85 840 24.81 3.8 38.8 79 0.5 32.9
14:50 1011 29.85 840 24.81 2.5 36.5 85 0.2 32.4
14:55 1011 29.85 840 24.81 1.9 35.4 87 -0 32
15:00 1011 29.85 840 24.81 1.6 35 89 -0 32
15:05 1011 29.85 840 24.81 1.4 34.5 90 -0.1 31.8
15:10 1011 29.85 840 24.81 1.2 34.2 91 -0.1 31.9
15:15 1011 29.85 840 24.81 1.2 34.2 91 -0.1 31.8
15:20 1011 29.85 840 24.81 1.1 33.9 92 -0.1 31.8
15:25 1011 29.85 840 24.81 1.4 34.4 92 0.1 32.2
15:30 1011 29.85 840 24.81 1.6 34.9 91 0.3 32.6
15:35 1011 29.85 840 24.81 1.9 35.3 90 0.4 32.7
15:40 1011 29.85 840 24.81 2.1 35.7 88 0.4 32.6
15:45 1011 29.85 840 24.81 2.2 36 88 0.5 32.8
15:50 1011 29.85 840 24.81 2.2 36 87 0.3 32.6
15:55 1011 29.85 840 24.81 2.4 36.3 86 0.3 32.5
16:00 1011 29.85 840 24.81 2.2 35.9 87 0.2 32.4
16:05 1011 29.85 841 24.83 1.6 34.9 88 -0.1 31.8
16:10 1012 29.88 841 24.83 1 33.7 90 -0.5 31.1
16:15 1012 29.88 841 24.83 0.3 32.5 92 -0.9 30.4
16:20 1012 29.88 842 24.86 -0 32 93 -1 30.2
16:25 1012 29.88 842 24.86 -0.1 31.9 93 -1 30.2
16:30 1013 29.91 842 24.86 -0.1 31.8 94 -1 30.2
16:35 1013 29.91 842 24.86 -0.1 31.8 94 -1 30.3
16:40 1013 29.91 842 24.86 -0.1 31.9 94 -0.9 30.4
16:45 1013 29.91 842 24.86 -0.1 31.8 94 -0.9 30.3
16:50 1013 29.91 842 24.86 -0.2 31.7 94 -1 30.3
16:55 1013 29.91 842 24.86 -0.2 31.6 94 -1.1 30.1
17:00 1013 29.91 842 24.86 -0.2 31.6 94 -1 30.2
17:05 1013 29.91 842 24.86 -0.2 31.7 94 -1 30.3
17:10 1013 29.91 842 24.86 -0.2 31.6 95 -1 30.2
17:15 1013 29.91 842 24.86 -0.2 31.6 94 -1 30.2
17:20 1013 29.91 842 24.86 -0.3 31.4 94 -1.1 30
17:25 1013 29.91 842 24.86 -0.3 31.5 95 -1 30.1
17:30 1013 29.91 842 24.86 -0.3 31.5 95 -1 30.2
17:35 1013 29.91 842 24.86 -0.3 31.5 95 -1 30.1
17:40 1013 29.91 842 24.86 -0.4 31.3 95 -1.2 29.9
17:45 1013 29.91 842 24.86 -0.4 31.3 95 -1.1 30
17:50 1013 29.91 842 24.86 -0.4 31.3 94 -1.2 29.9
17:55 1013 29.91 842 24.86 -0.5 31.2 94 -1.3 29.7
18:00 1013 29.91 842 24.86 -0.6 31 94 -1.4 29.5
18:05 1013 29.91 842 24.86 -0.6 30.9 94 -1.4 29.5
18:10 1013 29.91 842 24.86 -0.5 31 94 -1.4 29.5
18:15 1013 29.91 842 24.86 -0.5 31 94 -1.4 29.5
18:20 1013 29.91 842 24.86 -0.5 31.1 94 -1.4 29.5
18:25 1013 29.91 842 24.86 -0.4 31.2 92 -1.6 29.2
18:30 1013 29.91 842 24.86 -0.3 31.5 90 -1.8 28.7
18:35 1013 29.91 842 24.86 -0 31.9 89 -1.7 28.9
18:40 1013 29.91 842 24.86 0 32.1 88 -1.7 28.9
18:45 1013 29.91 842 24.86 0.1 32.2 82 -2.6 27.4
18:50 1013 29.91 842 24.86 0.4 32.7 82 -2.4 27.8
18:55 1013 29.91 842 24.86 0.3 32.6 82 -2.5 27.6
19:00 1013 29.91 842 24.86 0.3 32.5 81 -2.6 27.3
19:05 1013 29.91 842 24.86 0.2 32.3 80 -2.8 26.9
19:10 1013 29.91 842 24.86 0.1 32.1 81 -2.8 27
19:15 1013 29.91 842 24.86 -0.1 31.9 81 -2.9 26.8
19:20 1013 29.91 842 24.86 -0.2 31.7 81 -3.1 26.5
19:25 1013 29.91 842 24.86 -0.2 31.6 81 -3.1 26.5
19:30 1013 29.91 842 24.86 -0.4 31.3 82 -3.1 26.3
19:35 1013 29.91 842 24.86 -0.5 31.2 81 -3.4 25.9
19:40 1013 29.91 842 24.86 -0.4 31.3 80 -3.4 25.8
19:45 1013 29.91 842 24.86 -0.5 31.1 80 -3.5 25.6
19:50 1013 29.91 842 24.86 -0.8 30.6 82 -3.5 25.7
19:55 1013 29.91 842 24.86 -0.8 30.6 80 -3.8 25.2
20:00 1013 29.91 842 24.86 -0.8 30.6 78 -4.1 24.6
20:05 1013 29.91 842 24.86 -0.9 30.3 77 -4.5 23.9
20:10 1013 29.91 842 24.86 -0.8 30.5 73 -5 23
20:15 1013 29.91 842 24.86 -0.4 31.2 71 -5.1 22.8
20:20 1013 29.91 842 24.86 -0.4 31.4 67 -5.8 21.5
20:25 1013 29.91 842 24.86 -0.3 31.4 66 -6 21.2
20:30 1013 29.91 842 24.86 -0.3 31.4 63 -6.6 20.2
20:35 1013 29.91 842 24.86 -0.2 31.6 62 -6.7 20
20:40 1013 29.91 843 24.89 -0.3 31.5 63 -6.5 20.4
20:45 1013 29.91 843 24.89 -0.5 31.1 63 -6.7 19.9
20:50 1013 29.91 843 24.89 -0.4 31.2 61 -7 19.5
20:55 1013 29.91 843 24.89 -0.3 31.5 63 -6.5 20.2
21:00 1013 29.91 843 24.89 -0.2 31.6 61 -6.8 19.7
21:05 1013 29.91 843 24.89 -0.1 31.8 60 -7 19.3
21:10 1013 29.91 843 24.89 0 32 59 -7.2 19.1
21:15 1013 29.91 843 24.89 0.2 32.3 58 -7.2 19
21:20 1013 29.91 843 24.89 0.3 32.5 56 -7.4 18.7
21:25 1013 29.91 843 24.89 0.3 32.6 59 -6.8 19.7
21:30 1014 29.94 843 24.89 0.2 32.3 60 -6.8 19.8
21:35 1014 29.94 843 24.89 -0.2 31.7 62 -6.6 20.1
21:40 1013 29.91 843 24.89 -0.3 31.4 61 -6.9 19.5
21:45 1013 29.91 843 24.89 -0.2 31.7 61 -6.9 19.6
21:50 1014 29.94 843 24.89 -0.1 31.9 60 -6.8 19.7
21:55 1014 29.94 843 24.89 -0.2 31.7 62 -6.5 20.2
22:00 1014 29.94 843 24.89 -0.2 31.6 64 -6.2 20.8
22:05 1014 29.94 843 24.89 -0.3 31.5 64 -6.3 20.6
22:10 1014 29.94 843 24.89 -0.2 31.6 61 -6.8 19.8
22:15 1014 29.94 843 24.89 -0.2 31.7 61 -6.8 19.8
22:20 1014 29.94 843 24.89 -0.1 31.8 61 -6.8 19.7
22:25 1014 29.94 843 24.89 -0 31.9 61 -6.7 19.9
22:30 1014 29.94 843 24.89 -0.1 31.9 61 -6.7 19.9
22:35 1014 29.94 843 24.89 -0.1 31.8 63 -6.3 20.7
22:40 1014 29.94 843 24.89 -0.3 31.5 64 -6.2 20.8
22:45 1014 29.94 843 24.89 -0.3 31.4 65 -6.2 20.8
22:50 1014 29.94 843 24.89 -0.4 31.3 66 -6.1 21.1
22:55 1014 29.94 843 24.89 -0.4 31.2 63 -6.6 20
23:00 1014 29.94 843 24.89 -0.5 31.2 65 -6.1 20.9
23:05 1014 29.94 843 24.89 -0.5 31.1 63 -6.8 19.8
23:10 1014 29.94 843 24.89 -0.6 31 64 -6.5 20.3
23:15 1014 29.94 843 24.89 -0.8 30.6 65 -6.6 20.2
23:20 1014 29.94 843 24.89 -1 30.3 66 -6.5 20.4
23:25 1014 29.94 843 24.89 -1.2 29.9 65 -7 19.3
23:30 1014 29.94 843 24.89 -1.1 30 64 -7.1 19.3
23:35 1014 29.94 843 24.89 -0.9 30.3 63 -7 19.4
23:40 1014 29.94 843 24.89 -0.9 30.4 63 -7 19.4
23:45 1014 29.94 843 24.89 -0.9 30.5 63 -7.1 19.3
23:50 1014 29.94 843 24.89 -0.9 30.5 62 -7.2 19.1
23:55 1014 29.94 843 24.89 -0.8 30.6 61 -7.3 18.8
24:00 1014 29.94 843 24.89 -0.7 30.7 62 -7.2 19.1